sensor_id;sensor_type;location;lat;lon;timestamp;temperature;humidity
39889;DHT22;25563;50.844;4.308;2022-07-05T00:00:35;19.30;77.60
39889;DHT22;25563;50.844;4.308;2022-07-05T00:03:00;19.30;77.80
39889;DHT22;25563;50.844;4.308;2022-07-05T00:05:26;19.30;78.00
39889;DHT22;25563;50.844;4.308;2022-07-05T00:07:52;19.30;78.20
39889;DHT22;25563;50.844;4.308;2022-07-05T00:10:18;19.30;78.20
39889;DHT22;25563;50.844;4.308;2022-07-05T00:12:44;19.20;78.40
39889;DHT22;25563;50.844;4.308;2022-07-05T00:15:09;19.30;78.60
39889;DHT22;25563;50.844;4.308;2022-07-05T00:17:35;19.20;78.70
39889;DHT22;25563;50.844;4.308;2022-07-05T00:20:02;19.20;79.00
39889;DHT22;25563;50.844;4.308;2022-07-05T00:22:28;19.20;79.10
39889;DHT22;25563;50.844;4.308;2022-07-05T00:24:54;19.10;79.10
39889;DHT22;25563;50.844;4.308;2022-07-05T00:27:19;19.10;79.50
39889;DHT22;25563;50.844;4.308;2022-07-05T00:29:46;19.10;79.60
39889;DHT22;25563;50.844;4.308;2022-07-05T00:32:11;19.10;79.70
39889;DHT22;25563;50.844;4.308;2022-07-05T00:34:37;19.00;79.90
39889;DHT22;25563;50.844;4.308;2022-07-05T00:37:03;19.00;80.10
39889;DHT22;25563;50.844;4.308;2022-07-05T00:39:29;19.00;80.30
39889;DHT22;25563;50.844;4.308;2022-07-05T00:41:54;19.00;80.10
39889;DHT22;25563;50.844;4.308;2022-07-05T00:44:35;18.90;80.10
39889;DHT22;25563;50.844;4.308;2022-07-05T00:47:02;18.90;80.20
39889;DHT22;25563;50.844;4.308;2022-07-05T00:49:28;18.90;80.30
39889;DHT22;25563;50.844;4.308;2022-07-05T00:51:54;18.80;80.80
39889;DHT22;25563;50.844;4.308;2022-07-05T00:54:20;18.80;80.90
39889;DHT22;25563;50.844;4.308;2022-07-05T00:56:46;18.80;80.40
39889;DHT22;25563;50.844;4.308;2022-07-05T00:59:12;18.80;80.70
39889;DHT22;25563;50.844;4.308;2022-07-05T01:01:38;18.70;80.60
39889;DHT22;25563;50.844;4.308;2022-07-05T01:04:03;18.70;81.10
39889;DHT22;25563;50.844;4.308;2022-07-05T01:06:30;18.70;81.40
39889;DHT22;25563;50.844;4.308;2022-07-05T01:08:56;18.60;81.50
39889;DHT22;25563;50.844;4.308;2022-07-05T01:11:22;18.60;81.70
39889;DHT22;25563;50.844;4.308;2022-07-05T01:13:48;18.50;81.90
39889;DHT22;25563;50.844;4.308;2022-07-05T01:16:14;18.50;82.10
39889;DHT22;25563;50.844;4.308;2022-07-05T01:18:40;18.40;82.10
39889;DHT22;25563;50.844;4.308;2022-07-05T01:21:06;18.40;82.30
39889;DHT22;25563;50.844;4.308;2022-07-05T01:23:33;18.40;82.50
39889;DHT22;25563;50.844;4.308;2022-07-05T01:26:01;18.30;82.60
39889;DHT22;25563;50.844;4.308;2022-07-05T01:28:46;18.20;82.80
39889;DHT22;25563;50.844;4.308;2022-07-05T01:31:12;18.20;82.90
39889;DHT22;25563;50.844;4.308;2022-07-05T01:33:38;18.10;83.20
39889;DHT22;25563;50.844;4.308;2022-07-05T01:36:05;18.10;83.40
39889;DHT22;25563;50.844;4.308;2022-07-05T01:38:31;18.00;83.50
39889;DHT22;25563;50.844;4.308;2022-07-05T01:40:56;17.90;83.80
39889;DHT22;25563;50.844;4.308;2022-07-05T01:43:23;17.90;84.00
39889;DHT22;25563;50.844;4.308;2022-07-05T01:45:49;17.90;84.30
39889;DHT22;25563;50.844;4.308;2022-07-05T01:48:17;17.80;84.20
39889;DHT22;25563;50.844;4.308;2022-07-05T01:51:03;17.80;84.60
39889;DHT22;25563;50.844;4.308;2022-07-05T01:53:30;17.80;84.60
39889;DHT22;25563;50.844;4.308;2022-07-05T01:55:57;17.80;84.90
39889;DHT22;25563;50.844;4.308;2022-07-05T01:58:24;17.80;84.70
39889;DHT22;25563;50.844;4.308;2022-07-05T02:00:55;17.70;84.80
39889;DHT22;25563;50.844;4.308;2022-07-05T02:03:21;17.70;85.10
39889;DHT22;25563;50.844;4.308;2022-07-05T02:05:47;17.60;85.30
39889;DHT22;25563;50.844;4.308;2022-07-05T02:08:15;17.60;85.50
39889;DHT22;25563;50.844;4.308;2022-07-05T02:10:42;17.60;85.70
39889;DHT22;25563;50.844;4.308;2022-07-05T02:13:08;17.60;86.00
39889;DHT22;25563;50.844;4.308;2022-07-05T02:15:37;17.50;85.80
39889;DHT22;25563;50.844;4.308;2022-07-05T02:18:04;17.50;86.00
39889;DHT22;25563;50.844;4.308;2022-07-05T02:20:31;17.50;86.30
39889;DHT22;25563;50.844;4.308;2022-07-05T02:22:58;17.40;86.40
39889;DHT22;25563;50.844;4.308;2022-07-05T02:25:24;17.40;86.70
39889;DHT22;25563;50.844;4.308;2022-07-05T02:27:53;17.30;87.00
39889;DHT22;25563;50.844;4.308;2022-07-05T02:30:19;17.30;87.40
39889;DHT22;25563;50.844;4.308;2022-07-05T02:32:45;17.30;87.50
39889;DHT22;25563;50.844;4.308;2022-07-05T02:35:12;17.30;87.50
39889;DHT22;25563;50.844;4.308;2022-07-05T02:37:38;17.20;88.40
39889;DHT22;25563;50.844;4.308;2022-07-05T02:40:08;17.20;88.20
39889;DHT22;25563;50.844;4.308;2022-07-05T02:42:34;17.20;88.50
39889;DHT22;25563;50.844;4.308;2022-07-05T02:44:59;17.10;88.40
39889;DHT22;25563;50.844;4.308;2022-07-05T02:47:25;17.10;88.80
39889;DHT22;25563;50.844;4.308;2022-07-05T02:49:51;17.10;89.10
39889;DHT22;25563;50.844;4.308;2022-07-05T02:52:18;17.10;89.40
39889;DHT22;25563;50.844;4.308;2022-07-05T02:54:44;17.10;89.80
39889;DHT22;25563;50.844;4.308;2022-07-05T02:57:09;17.10;90.00
39889;DHT22;25563;50.844;4.308;2022-07-05T02:59:35;17.10;90.00
39889;DHT22;25563;50.844;4.308;2022-07-05T03:02:01;17.10;90.10
39889;DHT22;25563;50.844;4.308;2022-07-05T03:04:26;17.10;90.10
39889;DHT22;25563;50.844;4.308;2022-07-05T03:06:52;17.00;90.30
39889;DHT22;25563;50.844;4.308;2022-07-05T03:09:18;17.00;90.40
39889;DHT22;25563;50.844;4.308;2022-07-05T03:11:44;17.00;90.50
39889;DHT22;25563;50.844;4.308;2022-07-05T03:14:10;16.90;90.60
39889;DHT22;25563;50.844;4.308;2022-07-05T03:16:35;16.90;90.70
39889;DHT22;25563;50.844;4.308;2022-07-05T03:19:01;16.90;90.90
39889;DHT22;25563;50.844;4.308;2022-07-05T03:21:27;16.90;90.90
39889;DHT22;25563;50.844;4.308;2022-07-05T03:23:52;16.80;91.10
39889;DHT22;25563;50.844;4.308;2022-07-05T03:26:18;16.80;91.30
39889;DHT22;25563;50.844;4.308;2022-07-05T03:28:44;16.80;91.50
39889;DHT22;25563;50.844;4.308;2022-07-05T03:31:09;16.80;91.50
39889;DHT22;25563;50.844;4.308;2022-07-05T03:33:35;16.70;91.50
39889;DHT22;25563;50.844;4.308;2022-07-05T03:36:01;16.70;91.60
39889;DHT22;25563;50.844;4.308;2022-07-05T03:38:26;16.70;91.70
39889;DHT22;25563;50.844;4.308;2022-07-05T03:40:53;16.70;91.80
39889;DHT22;25563;50.844;4.308;2022-07-05T03:43:19;16.70;91.90
39889;DHT22;25563;50.844;4.308;2022-07-05T03:45:45;16.70;91.90
39889;DHT22;25563;50.844;4.308;2022-07-05T03:48:10;16.70;91.90
39889;DHT22;25563;50.844;4.308;2022-07-05T03:50:37;16.70;92.00
39889;DHT22;25563;50.844;4.308;2022-07-05T03:53:02;16.60;92.10
39889;DHT22;25563;50.844;4.308;2022-07-05T03:55:28;16.60;92.20
39889;DHT22;25563;50.844;4.308;2022-07-05T03:57:54;16.60;92.10
39889;DHT22;25563;50.844;4.308;2022-07-05T04:00:19;16.60;92.10
39889;DHT22;25563;50.844;4.308;2022-07-05T04:02:45;16.60;92.30
39889;DHT22;25563;50.844;4.308;2022-07-05T04:05:11;16.60;92.40
39889;DHT22;25563;50.844;4.308;2022-07-05T04:07:54;16.50;92.50
39889;DHT22;25563;50.844;4.308;2022-07-05T04:10:20;16.60;92.60
39889;DHT22;25563;50.844;4.308;2022-07-05T04:12:46;16.50;92.50
39889;DHT22;25563;50.844;4.308;2022-07-05T04:15:13;16.60;92.50
39889;DHT22;25563;50.844;4.308;2022-07-05T04:17:50;16.60;92.50
39889;DHT22;25563;50.844;4.308;2022-07-05T04:20:16;16.50;92.60
39889;DHT22;25563;50.844;4.308;2022-07-05T04:22:42;16.60;92.60
39889;DHT22;25563;50.844;4.308;2022-07-05T04:25:08;16.60;92.60
39889;DHT22;25563;50.844;4.308;2022-07-05T04:27:51;16.60;92.70
39889;DHT22;25563;50.844;4.308;2022-07-05T04:30:20;16.60;92.80
39889;DHT22;25563;50.844;4.308;2022-07-05T04:32:46;16.50;92.80
39889;DHT22;25563;50.844;4.308;2022-07-05T04:35:12;16.60;92.80
39889;DHT22;25563;50.844;4.308;2022-07-05T04:37:38;16.60;92.70
39889;DHT22;25563;50.844;4.308;2022-07-05T04:40:06;16.60;92.60
39889;DHT22;25563;50.844;4.308;2022-07-05T04:42:32;16.60;92.70
39889;DHT22;25563;50.844;4.308;2022-07-05T04:44:58;16.60;92.70
39889;DHT22;25563;50.844;4.308;2022-07-05T04:47:24;16.60;92.50
39889;DHT22;25563;50.844;4.308;2022-07-05T04:49:53;16.60;92.60
39889;DHT22;25563;50.844;4.308;2022-07-05T04:52:20;16.70;92.60
39889;DHT22;25563;50.844;4.308;2022-07-05T04:54:45;16.70;92.60
39889;DHT22;25563;50.844;4.308;2022-07-05T04:57:11;16.60;92.70
39889;DHT22;25563;50.844;4.308;2022-07-05T04:59:37;16.60;92.90
39889;DHT22;25563;50.844;4.308;2022-07-05T05:02:03;16.60;92.70
39889;DHT22;25563;50.844;4.308;2022-07-05T05:04:29;16.60;92.70
39889;DHT22;25563;50.844;4.308;2022-07-05T05:06:54;16.60;92.70
39889;DHT22;25563;50.844;4.308;2022-07-05T05:09:20;16.60;92.50
39889;DHT22;25563;50.844;4.308;2022-07-05T05:11:46;16.60;92.50
39889;DHT22;25563;50.844;4.308;2022-07-05T05:14:12;16.70;92.70
39889;DHT22;25563;50.844;4.308;2022-07-05T05:16:38;16.60;92.70
39889;DHT22;25563;50.844;4.308;2022-07-05T05:19:04;16.70;92.60
39889;DHT22;25563;50.844;4.308;2022-07-05T05:21:29;16.70;92.50
39889;DHT22;25563;50.844;4.308;2022-07-05T05:23:55;16.70;92.50
39889;DHT22;25563;50.844;4.308;2022-07-05T05:26:21;16.70;92.30
39889;DHT22;25563;50.844;4.308;2022-07-05T05:28:46;16.80;92.40
39889;DHT22;25563;50.844;4.308;2022-07-05T05:31:12;16.80;92.40
39889;DHT22;25563;50.844;4.308;2022-07-05T05:33:39;16.80;92.50
39889;DHT22;25563;50.844;4.308;2022-07-05T05:36:05;16.80;92.40
39889;DHT22;25563;50.844;4.308;2022-07-05T05:38:31;16.80;92.40
39889;DHT22;25563;50.844;4.308;2022-07-05T05:40:57;16.70;92.30
39889;DHT22;25563;50.844;4.308;2022-07-05T05:43:23;16.80;92.50
39889;DHT22;25563;50.844;4.308;2022-07-05T05:45:48;16.70;92.50
39889;DHT22;25563;50.844;4.308;2022-07-05T05:48:14;16.80;92.60
39889;DHT22;25563;50.844;4.308;2022-07-05T05:50:40;16.80;92.60
39889;DHT22;25563;50.844;4.308;2022-07-05T05:53:07;16.80;92.70
39889;DHT22;25563;50.844;4.308;2022-07-05T05:55:34;16.90;92.50
39889;DHT22;25563;50.844;4.308;2022-07-05T06:00:41;17.00;92.50
39889;DHT22;25563;50.844;4.308;2022-07-05T06:03:08;17.10;92.50
39889;DHT22;25563;50.844;4.308;2022-07-05T06:05:34;17.10;92.70
39889;DHT22;25563;50.844;4.308;2022-07-05T06:07:59;17.00;92.60
39889;DHT22;25563;50.844;4.308;2022-07-05T06:10:30;17.10;92.50
39889;DHT22;25563;50.844;4.308;2022-07-05T06:12:58;17.10;92.60
39889;DHT22;25563;50.844;4.308;2022-07-05T06:15:24;17.10;92.60
39889;DHT22;25563;50.844;4.308;2022-07-05T06:17:50;17.10;92.80
39889;DHT22;25563;50.844;4.308;2022-07-05T06:20:19;17.10;92.90
39889;DHT22;25563;50.844;4.308;2022-07-05T06:22:46;17.10;92.80
39889;DHT22;25563;50.844;4.308;2022-07-05T06:25:12;17.20;93.10
39889;DHT22;25563;50.844;4.308;2022-07-05T06:27:50;17.10;93.20
39889;DHT22;25563;50.844;4.308;2022-07-05T06:30:18;17.10;93.40
39889;DHT22;25563;50.844;4.308;2022-07-05T06:32:46;17.20;93.70
39889;DHT22;25563;50.844;4.308;2022-07-05T06:35:12;17.10;93.80
39889;DHT22;25563;50.844;4.308;2022-07-05T06:40:13;17.20;94.00
39889;DHT22;25563;50.844;4.308;2022-07-05T06:42:39;17.30;94.00
39889;DHT22;25563;50.844;4.308;2022-07-05T06:45:06;17.30;94.00
39889;DHT22;25563;50.844;4.308;2022-07-05T06:47:33;17.40;93.80
39889;DHT22;25563;50.844;4.308;2022-07-05T06:49:59;17.50;93.90
39889;DHT22;25563;50.844;4.308;2022-07-05T06:52:25;17.50;93.70
39889;DHT22;25563;50.844;4.308;2022-07-05T06:54:50;17.60;93.80
39889;DHT22;25563;50.844;4.308;2022-07-05T06:57:23;17.70;93.50
39889;DHT22;25563;50.844;4.308;2022-07-05T06:59:49;17.70;93.30
39889;DHT22;25563;50.844;4.308;2022-07-05T07:02:16;17.80;93.20
39889;DHT22;25563;50.844;4.308;2022-07-05T07:04:42;17.80;93.40
39889;DHT22;25563;50.844;4.308;2022-07-05T07:07:08;17.90;93.30
39889;DHT22;25563;50.844;4.308;2022-07-05T07:10:03;18.00;93.20
39889;DHT22;25563;50.844;4.308;2022-07-05T07:12:29;18.00;93.20
39889;DHT22;25563;50.844;4.308;2022-07-05T07:14:56;18.10;93.10
39889;DHT22;25563;50.844;4.308;2022-07-05T07:17:24;18.10;93.00
39889;DHT22;25563;50.844;4.308;2022-07-05T07:19:50;18.20;93.00
39889;DHT22;25563;50.844;4.308;2022-07-05T07:22:16;18.20;93.00
39889;DHT22;25563;50.844;4.308;2022-07-05T07:24:41;18.30;92.80
39889;DHT22;25563;50.844;4.308;2022-07-05T07:27:07;18.40;92.70
39889;DHT22;25563;50.844;4.308;2022-07-05T07:29:38;18.50;92.70
39889;DHT22;25563;50.844;4.308;2022-07-05T07:32:05;18.60;92.30
39889;DHT22;25563;50.844;4.308;2022-07-05T07:34:31;18.80;92.00
39889;DHT22;25563;50.844;4.308;2022-07-05T07:36:58;18.90;91.60
39889;DHT22;25563;50.844;4.308;2022-07-05T07:39:24;19.00;91.40
39889;DHT22;25563;50.844;4.308;2022-07-05T07:41:50;19.20;91.10
39889;DHT22;25563;50.844;4.308;2022-07-05T07:44:16;19.50;91.00
39889;DHT22;25563;50.844;4.308;2022-07-05T07:46:42;19.80;90.50
39889;DHT22;25563;50.844;4.308;2022-07-05T07:49:08;20.10;90.00
39889;DHT22;25563;50.844;4.308;2022-07-05T07:51:35;20.30;89.30
39889;DHT22;25563;50.844;4.308;2022-07-05T07:54:01;20.50;88.60
39889;DHT22;25563;50.844;4.308;2022-07-05T07:56:27;20.60;87.60
39889;DHT22;25563;50.844;4.308;2022-07-05T07:58:53;20.70;87.30
39889;DHT22;25563;50.844;4.308;2022-07-05T08:01:18;20.90;87.40
39889;DHT22;25563;50.844;4.308;2022-07-05T08:03:44;20.90;86.60
39889;DHT22;25563;50.844;4.308;2022-07-05T08:06:11;20.90;86.60
39889;DHT22;25563;50.844;4.308;2022-07-05T08:08:38;20.90;86.30
39889;DHT22;25563;50.844;4.308;2022-07-05T08:11:05;21.00;86.10
39889;DHT22;25563;50.844;4.308;2022-07-05T08:13:31;21.00;85.50
39889;DHT22;25563;50.844;4.308;2022-07-05T08:15:57;21.00;85.80
39889;DHT22;25563;50.844;4.308;2022-07-05T08:18:23;20.90;85.80
39889;DHT22;25563;50.844;4.308;2022-07-05T08:21:08;20.90;85.70
39889;DHT22;25563;50.844;4.308;2022-07-05T08:23:52;20.90;85.80
39889;DHT22;25563;50.844;4.308;2022-07-05T08:26:18;20.90;85.60
39889;DHT22;25563;50.844;4.308;2022-07-05T08:28:43;20.90;85.70
39889;DHT22;25563;50.844;4.308;2022-07-05T08:31:10;20.90;85.80
39889;DHT22;25563;50.844;4.308;2022-07-05T08:33:36;20.90;86.10
39889;DHT22;25563;50.844;4.308;2022-07-05T08:36:02;20.90;86.20
39889;DHT22;25563;50.844;4.308;2022-07-05T08:38:28;20.90;84.40
39889;DHT22;25563;50.844;4.308;2022-07-05T08:40:55;20.90;84.70
39889;DHT22;25563;50.844;4.308;2022-07-05T08:43:22;20.90;85.40
39889;DHT22;25563;50.844;4.308;2022-07-05T08:45:50;20.80;85.80
39889;DHT22;25563;50.844;4.308;2022-07-05T08:48:16;20.90;86.30
39889;DHT22;25563;50.844;4.308;2022-07-05T08:50:43;20.90;85.30
39889;DHT22;25563;50.844;4.308;2022-07-05T08:53:12;20.90;85.40
39889;DHT22;25563;50.844;4.308;2022-07-05T08:55:40;20.90;85.20
39889;DHT22;25563;50.844;4.308;2022-07-05T08:58:05;20.90;84.80
39889;DHT22;25563;50.844;4.308;2022-07-05T09:00:32;20.90;84.70
39889;DHT22;25563;50.844;4.308;2022-07-05T09:02:58;21.00;85.50
39889;DHT22;25563;50.844;4.308;2022-07-05T09:05:25;21.00;84.20
39889;DHT22;25563;50.844;4.308;2022-07-05T09:08:01;21.10;82.80
39889;DHT22;25563;50.844;4.308;2022-07-05T09:10:29;21.10;83.10
39889;DHT22;25563;50.844;4.308;2022-07-05T09:12:55;21.20;83.00
39889;DHT22;25563;50.844;4.308;2022-07-05T09:15:22;21.30;82.60
39889;DHT22;25563;50.844;4.308;2022-07-05T09:17:48;21.30;81.00
39889;DHT22;25563;50.844;4.308;2022-07-05T09:20:15;21.40;82.00
39889;DHT22;25563;50.844;4.308;2022-07-05T09:22:49;21.40;81.90
39889;DHT22;25563;50.844;4.308;2022-07-05T09:25:20;21.40;82.30
39889;DHT22;25563;50.844;4.308;2022-07-05T09:27:59;21.40;82.50
39889;DHT22;25563;50.844;4.308;2022-07-05T09:30:27;21.50;82.70
39889;DHT22;25563;50.844;4.308;2022-07-05T09:33:15;21.50;82.60
39889;DHT22;25563;50.844;4.308;2022-07-05T09:35:42;21.70;81.80
39889;DHT22;25563;50.844;4.308;2022-07-05T09:38:21;21.80;81.20
39889;DHT22;25563;50.844;4.308;2022-07-05T09:40:56;21.90;81.10
39889;DHT22;25563;50.844;4.308;2022-07-05T09:43:29;22.00;81.40
39889;DHT22;25563;50.844;4.308;2022-07-05T09:48:21;22.50;79.30
39889;DHT22;25563;50.844;4.308;2022-07-05T09:50:48;22.60;79.60
39889;DHT22;25563;50.844;4.308;2022-07-05T09:53:15;22.70;78.30
39889;DHT22;25563;50.844;4.308;2022-07-05T09:55:41;22.80;77.20
39889;DHT22;25563;50.844;4.308;2022-07-05T09:58:07;22.90;76.70
39889;DHT22;25563;50.844;4.308;2022-07-05T10:00:32;23.20;75.40
39889;DHT22;25563;50.844;4.308;2022-07-05T10:02:58;23.30;73.20
39889;DHT22;25563;50.844;4.308;2022-07-05T10:05:32;23.50;72.10
39889;DHT22;25563;50.844;4.308;2022-07-05T10:07:59;23.80;72.50
39889;DHT22;25563;50.844;4.308;2022-07-05T10:10:32;24.10;72.10
39889;DHT22;25563;50.844;4.308;2022-07-05T10:13:03;24.20;71.90
39889;DHT22;25563;50.844;4.308;2022-07-05T10:15:31;24.30;70.90
39889;DHT22;25563;50.844;4.308;2022-07-05T10:18:07;24.50;69.90
39889;DHT22;25563;50.844;4.308;2022-07-05T10:23:08;24.70;68.80
39889;DHT22;25563;50.844;4.308;2022-07-05T10:25:38;24.80;68.30
39889;DHT22;25563;50.844;4.308;2022-07-05T10:28:05;24.80;67.70
39889;DHT22;25563;50.844;4.308;2022-07-05T10:30:32;24.60;68.10
39889;DHT22;25563;50.844;4.308;2022-07-05T10:33:01;24.50;68.80
39889;DHT22;25563;50.844;4.308;2022-07-05T10:35:27;24.30;67.80
39889;DHT22;25563;50.844;4.308;2022-07-05T10:37:53;24.10;68.30
39889;DHT22;25563;50.844;4.308;2022-07-05T10:40:19;23.90;69.20
39889;DHT22;25563;50.844;4.308;2022-07-05T10:42:48;23.80;69.00
39889;DHT22;25563;50.844;4.308;2022-07-05T10:48:23;23.70;69.30
39889;DHT22;25563;50.844;4.308;2022-07-05T10:58:35;24.60;66.60
39889;DHT22;25563;50.844;4.308;2022-07-05T11:06:27;24.40;65.00
39889;DHT22;25563;50.844;4.308;2022-07-05T11:13:58;24.60;64.00
39889;DHT22;25563;50.844;4.308;2022-07-05T11:16:35;24.90;64.50
39889;DHT22;25563;50.844;4.308;2022-07-05T11:19:06;25.10;63.50
39889;DHT22;25563;50.844;4.308;2022-07-05T11:21:33;25.40;63.80
39889;DHT22;25563;50.844;4.308;2022-07-05T11:26:45;25.60;63.10
39889;DHT22;25563;50.844;4.308;2022-07-05T11:32:09;25.80;62.20
39889;DHT22;25563;50.844;4.308;2022-07-05T11:34:36;25.70;61.20
39889;DHT22;25563;50.844;4.308;2022-07-05T11:37:22;25.70;61.10
39889;DHT22;25563;50.844;4.308;2022-07-05T11:42:37;25.90;60.80
39889;DHT22;25563;50.844;4.308;2022-07-05T11:45:08;26.00;60.70
39889;DHT22;25563;50.844;4.308;2022-07-05T11:47:35;25.80;60.90
39889;DHT22;25563;50.844;4.308;2022-07-05T11:50:02;25.60;62.10
39889;DHT22;25563;50.844;4.308;2022-07-05T11:52:32;25.40;62.70
39889;DHT22;25563;50.844;4.308;2022-07-05T11:55:07;25.30;63.60
39889;DHT22;25563;50.844;4.308;2022-07-05T11:57:33;25.50;63.00
39889;DHT22;25563;50.844;4.308;2022-07-05T11:59:59;27.10;61.90
39889;DHT22;25563;50.844;4.308;2022-07-05T12:02:25;28.70;59.60
39889;DHT22;25563;50.844;4.308;2022-07-05T12:04:55;30.40;57.40
39889;DHT22;25563;50.844;4.308;2022-07-05T12:07:28;31.40;55.10
39889;DHT22;25563;50.844;4.308;2022-07-05T12:09:55;31.90;54.20
39889;DHT22;25563;50.844;4.308;2022-07-05T12:12:41;32.40;53.20
39889;DHT22;25563;50.844;4.308;2022-07-05T12:15:14;33.10;51.70
39889;DHT22;25563;50.844;4.308;2022-07-05T12:17:42;34.10;50.90
39889;DHT22;25563;50.844;4.308;2022-07-05T12:20:10;32.80;51.50
39889;DHT22;25563;50.844;4.308;2022-07-05T12:22:44;31.20;53.00
39889;DHT22;25563;50.844;4.308;2022-07-05T12:25:21;29.70;54.40
39889;DHT22;25563;50.844;4.308;2022-07-05T12:27:50;30.20;53.80
39889;DHT22;25563;50.844;4.308;2022-07-05T12:30:17;30.20;53.60
39889;DHT22;25563;50.844;4.308;2022-07-05T12:32:55;29.50;54.60
39889;DHT22;25563;50.844;4.308;2022-07-05T12:35:35;28.80;55.90
39889;DHT22;25563;50.844;4.308;2022-07-05T12:38:07;28.10;56.90
39889;DHT22;25563;50.844;4.308;2022-07-05T12:40:34;27.90;57.60
39889;DHT22;25563;50.844;4.308;2022-07-05T12:43:10;30.10;55.50
39889;DHT22;25563;50.844;4.308;2022-07-05T12:45:38;32.40;52.70
39889;DHT22;25563;50.844;4.308;2022-07-05T12:48:06;32.10;50.70
39889;DHT22;25563;50.844;4.308;2022-07-05T12:50:51;30.80;52.90
39889;DHT22;25563;50.844;4.308;2022-07-05T12:53:18;30.40;54.20
39889;DHT22;25563;50.844;4.308;2022-07-05T12:56:05;32.20;52.00
39889;DHT22;25563;50.844;4.308;2022-07-05T12:58:53;34.30;50.10
39889;DHT22;25563;50.844;4.308;2022-07-05T13:01:22;34.50;49.00
39889;DHT22;25563;50.844;4.308;2022-07-05T13:06:47;32.40;51.30
39889;DHT22;25563;50.844;4.308;2022-07-05T13:09:15;31.30;52.30
39889;DHT22;25563;50.844;4.308;2022-07-05T13:11:42;30.30;53.20
39889;DHT22;25563;50.844;4.308;2022-07-05T13:14:08;29.60;54.40
39889;DHT22;25563;50.844;4.308;2022-07-05T13:16:34;30.50;54.00
39889;DHT22;25563;50.844;4.308;2022-07-05T13:19:12;32.30;51.80
39889;DHT22;25563;50.844;4.308;2022-07-05T13:21:38;31.60;51.70
39889;DHT22;25563;50.844;4.308;2022-07-05T13:24:05;30.50;52.50
39889;DHT22;25563;50.844;4.308;2022-07-05T13:26:30;29.80;53.00
39889;DHT22;25563;50.844;4.308;2022-07-05T13:28:56;30.30;52.60
39889;DHT22;25563;50.844;4.308;2022-07-05T13:31:22;31.10;52.20
39889;DHT22;25563;50.844;4.308;2022-07-05T13:33:48;31.70;51.80
39889;DHT22;25563;50.844;4.308;2022-07-05T13:36:13;32.50;50.90
39889;DHT22;25563;50.844;4.308;2022-07-05T13:38:39;33.70;49.30
39889;DHT22;25563;50.844;4.308;2022-07-05T13:41:05;32.30;50.10
39889;DHT22;25563;50.844;4.308;2022-07-05T13:43:30;31.50;51.60
39889;DHT22;25563;50.844;4.308;2022-07-05T13:45:56;33.60;50.30
39889;DHT22;25563;50.844;4.308;2022-07-05T13:48:22;34.20;48.40
39889;DHT22;25563;50.844;4.308;2022-07-05T13:50:48;35.40;47.40
39889;DHT22;25563;50.844;4.308;2022-07-05T13:53:14;36.70;46.40
39889;DHT22;25563;50.844;4.308;2022-07-05T13:55:40;37.50;45.60
39889;DHT22;25563;50.844;4.308;2022-07-05T13:58:05;37.00;45.20
39889;DHT22;25563;50.844;4.308;2022-07-05T14:00:31;35.60;46.50
39889;DHT22;25563;50.844;4.308;2022-07-05T14:02:57;34.10;47.20
39889;DHT22;25563;50.844;4.308;2022-07-05T14:05:22;33.70;47.70
39889;DHT22;25563;50.844;4.308;2022-07-05T14:07:48;35.10;47.90
39889;DHT22;25563;50.844;4.308;2022-07-05T14:10:14;36.20;45.60
39889;DHT22;25563;50.844;4.308;2022-07-05T14:12:40;35.30;46.00
39889;DHT22;25563;50.844;4.308;2022-07-05T14:15:06;35.60;45.90
39889;DHT22;25563;50.844;4.308;2022-07-05T14:17:32;36.30;45.40
39889;DHT22;25563;50.844;4.308;2022-07-05T14:19:58;37.10;44.50
39889;DHT22;25563;50.844;4.308;2022-07-05T14:22:24;37.60;44.20
39889;DHT22;25563;50.844;4.308;2022-07-05T14:24:49;37.40;43.60
39889;DHT22;25563;50.844;4.308;2022-07-05T14:27:15;36.40;44.10
39889;DHT22;25563;50.844;4.308;2022-07-05T14:29:41;37.10;43.90
39889;DHT22;25563;50.844;4.308;2022-07-05T14:32:07;37.90;43.20
39889;DHT22;25563;50.844;4.308;2022-07-05T14:34:33;37.70;43.00
39889;DHT22;25563;50.844;4.308;2022-07-05T14:36:59;37.20;43.40
39889;DHT22;25563;50.844;4.308;2022-07-05T14:39:25;36.60;44.50
39889;DHT22;25563;50.844;4.308;2022-07-05T14:41:51;37.10;43.80
39889;DHT22;25563;50.844;4.308;2022-07-05T14:44:17;37.90;43.40
39889;DHT22;25563;50.844;4.308;2022-07-05T14:46:43;38.20;42.80
39889;DHT22;25563;50.844;4.308;2022-07-05T14:49:08;36.40;43.50
39889;DHT22;25563;50.844;4.308;2022-07-05T14:51:34;34.40;44.90
39889;DHT22;25563;50.844;4.308;2022-07-05T14:54:00;34.90;45.00
39889;DHT22;25563;50.844;4.308;2022-07-05T14:56:25;33.80;45.80
39889;DHT22;25563;50.844;4.308;2022-07-05T14:58:51;32.40;47.10
39889;DHT22;25563;50.844;4.308;2022-07-05T15:01:17;31.40;48.30
39889;DHT22;25563;50.844;4.308;2022-07-05T15:03:43;32.70;47.40
39889;DHT22;25563;50.844;4.308;2022-07-05T15:06:09;34.10;46.10
39889;DHT22;25563;50.844;4.308;2022-07-05T15:08:36;35.40;44.80
39889;DHT22;25563;50.844;4.308;2022-07-05T15:11:04;35.80;44.40
39889;DHT22;25563;50.844;4.308;2022-07-05T15:13:30;36.30;43.50
39889;DHT22;25563;50.844;4.308;2022-07-05T15:15:56;36.10;43.80
39889;DHT22;25563;50.844;4.308;2022-07-05T15:18:23;36.50;43.60
39889;DHT22;25563;50.844;4.308;2022-07-05T15:20:49;37.20;42.30
39889;DHT22;25563;50.844;4.308;2022-07-05T15:23:17;38.00;41.90
39889;DHT22;25563;50.844;4.308;2022-07-05T15:25:43;38.50;41.20
39889;DHT22;25563;50.844;4.308;2022-07-05T15:28:09;38.70;41.70
39889;DHT22;25563;50.844;4.308;2022-07-05T15:30:36;39.10;41.00
39889;DHT22;25563;50.844;4.308;2022-07-05T15:33:03;39.60;40.60
39889;DHT22;25563;50.844;4.308;2022-07-05T15:35:29;39.90;40.20
39889;DHT22;25563;50.844;4.308;2022-07-05T15:37:54;39.70;39.20
39889;DHT22;25563;50.844;4.308;2022-07-05T15:40:20;39.70;39.70
39889;DHT22;25563;50.844;4.308;2022-07-05T15:42:46;39.40;39.50
39889;DHT22;25563;50.844;4.308;2022-07-05T15:45:12;38.80;39.50
39889;DHT22;25563;50.844;4.308;2022-07-05T15:47:38;38.30;40.00
39889;DHT22;25563;50.844;4.308;2022-07-05T15:50:10;38.20;39.70
39889;DHT22;25563;50.844;4.308;2022-07-05T15:52:38;38.10;39.90
39889;DHT22;25563;50.844;4.308;2022-07-05T15:55:05;38.20;39.80
39889;DHT22;25563;50.844;4.308;2022-07-05T15:57:31;38.10;39.80
39889;DHT22;25563;50.844;4.308;2022-07-05T15:59:57;37.90;39.70
39889;DHT22;25563;50.844;4.308;2022-07-05T16:02:23;37.90;39.40
39889;DHT22;25563;50.844;4.308;2022-07-05T16:04:50;37.90;39.40
39889;DHT22;25563;50.844;4.308;2022-07-05T16:07:16;37.90;39.70
39889;DHT22;25563;50.844;4.308;2022-07-05T16:09:42;37.90;39.10
39889;DHT22;25563;50.844;4.308;2022-07-05T16:12:08;37.30;39.50
39889;DHT22;25563;50.844;4.308;2022-07-05T16:14:34;37.40;39.50